Time,TemperatureF,DewpointF,PressureIn,WindDirection,WindDirectionDegrees,WindSpeedMPH,WindSpeedGustMPH,Humidity,HourlyPrecipIn,Conditions,Clouds,dailyrainin,SolarRadiationWatts/m^2,SoftwareType,DateUTC
2013-05-06 00:01:00,35.6,33.8,30.14,NE,36,0.0,0.0,93,0.00,SCT,,0.00,0.0,WeatherDisplay:10.37,2013-05-06 05:01:00,
2013-05-06 00:06:00,35.6,33.8,30.14,NE,36,0.0,0.0,93,0.00,SCT,,0.00,0.0,WeatherDisplay:10.37,2013-05-06 05:06:00,
2013-05-06 00:11:00,35.6,33.8,30.14,NE,36,0.0,0.0,93,0.00,SCT,,0.00,0.0,WeatherDisplay:10.37,2013-05-06 05:11:00,
2013-05-06 00:16:00,35.6,33.8,30.14,NE,36,0.0,0.0,93,0.00,SCT,,0.00,0.0,WeatherDisplay:10.37,2013-05-06 05:16:00,
2013-05-06 00:21:00,35.7,33.9,30.14,NE,36,0.0,0.0,93,0.00,SCT,,0.00,0.0,WeatherDisplay:10.37,2013-05-06 05:21:00,
2013-05-06 00:26:00,35.7,33.9,30.14,NE,36,0.0,0.0,93,0.00,SCT,,0.00,0.0,WeatherDisplay:10.37,2013-05-06 05:26:00,
2013-05-06 00:31:00,35.7,33.9,30.14,NE,36,0.0,0.0,93,0.00,SCT,,0.00,0.0,WeatherDisplay:10.37,2013-05-06 05:31:00,
2013-05-06 00:36:00,35.7,33.9,30.14,NE,36,0.0,0.0,93,0.00,SCT,,0.00,0.0,WeatherDisplay:10.37,2013-05-06 05:36:00,
2013-05-06 00:41:00,35.7,33.9,30.14,NE,36,0.0,0.0,93,0.00,SCT,,0.00,0.0,WeatherDisplay:10.37,2013-05-06 05:41:00,
2013-05-06 00:46:00,35.7,33.9,30.14,NE,36,0.0,0.0,93,0.00,SCT,,0.00,0.0,WeatherDisplay:10.37,2013-05-06 05:46:00,
2013-05-06 00:51:00,35.7,33.9,30.13,NE,36,0.0,0.0,93,0.00,SCT,,0.00,0.0,WeatherDisplay:10.37,2013-05-06 05:51:00,
2013-05-06 00:56:00,35.7,33.9,30.13,NE,36,0.0,0.0,93,0.00,SCT,,0.00,0.0,WeatherDisplay:10.37,2013-05-06 05:56:00,
2013-05-06 01:01:00,35.7,33.9,30.13,NE,36,0.0,0.0,93,0.00,SCT,,0.00,0.0,WeatherDisplay:10.37,2013-05-06 06:01:00,
2013-05-06 01:06:00,35.7,33.9,30.13,NE,36,0.0,0.0,93,0.00,SCT,,0.00,0.0,WeatherDisplay:10.37,2013-05-06 06:06:00,
2013-05-06 01:11:00,35.6,33.8,30.13,NE,36,0.0,0.0,93,0.00,SCT,,0.00,0.0,WeatherDisplay:10.37,2013-05-06 06:11:00,
2013-05-06 01:16:00,35.5,33.7,30.13,NE,36,0.0,0.0,93,0.00,SCT,,0.00,0.0,WeatherDisplay:10.37,2013-05-06 06:16:00,
2013-05-06 01:21:00,35.4,33.6,30.13,NE,36,0.0,0.0,93,0.00,SCT,,0.00,0.0,WeatherDisplay:10.37,2013-05-06 06:21:00,
2013-05-06 01:26:00,35.3,33.5,30.13,NE,36,0.0,0.0,93,0.00,SCT,,0.00,0.0,WeatherDisplay:10.37,2013-05-06 06:26:00,
2013-05-06 01:31:00,35.2,33.4,30.13,NE,36,0.0,0.0,93,0.00,SCT,,0.00,0.0,WeatherDisplay:10.37,2013-05-06 06:31:00,
2013-05-06 01:36:00,35.2,33.4,30.13,NE,36,0.0,0.0,93,0.00,SCT,,0.00,0.0,WeatherDisplay:10.37,2013-05-06 06:36:00,
2013-05-06 01:41:00,35.1,33.3,30.13,NE,36,0.0,0.0,93,0.00,SCT,,0.00,0.0,WeatherDisplay:10.37,2013-05-06 06:41:00,
2013-05-06 01:46:00,35.0,33.2,30.13,NE,36,0.0,0.0,93,0.00,SCT,,0.00,0.0,WeatherDisplay:10.37,2013-05-06 06:46:00,
2013-05-06 01:51:00,35.0,33.2,30.13,NE,36,0.0,0.0,93,0.00,SCT,,0.00,0.0,WeatherDisplay:10.37,2013-05-06 06:51:00,
2013-05-06 01:56:00,34.9,33.1,30.13,NE,36,0.0,0.0,93,0.00,SCT,,0.00,0.0,WeatherDisplay:10.37,2013-05-06 06:56:00,
2013-05-06 02:01:00,34.8,33.2,30.13,NE,36,0.0,0.0,94,0.00,FEW,,0.00,0.0,WeatherDisplay:10.37,2013-05-06 07:01:00,
2013-05-06 02:06:00,34.8,33.2,30.13,NE,36,0.0,0.0,94,0.00,FEW,,0.00,0.0,WeatherDisplay:10.37,2013-05-06 07:06:00,
2013-05-06 02:11:00,34.6,32.8,30.13,NE,36,0.0,0.0,93,0.00,FEW,,0.00,0.0,WeatherDisplay:10.37,2013-05-06 07:11:00,
2013-05-06 02:16:00,34.6,32.8,30.13,NE,36,0.0,0.0,93,0.00,FEW,,0.00,0.0,WeatherDisplay:10.37,2013-05-06 07:16:00,
2013-05-06 02:21:00,34.5,33.0,30.13,NE,36,0.0,0.0,94,0.00,FEW,,0.00,0.0,WeatherDisplay:10.37,2013-05-06 07:21:00,
2013-05-06 02:26:00,34.5,33.0,30.13,NE,36,0.0,0.0,94,0.00,FEW,,0.00,0.0,WeatherDisplay:10.37,2013-05-06 07:26:00,
2013-05-06 02:31:00,34.5,33.0,30.13,NE,36,0.0,0.0,94,0.00,FEW,,0.00,0.0,WeatherDisplay:10.37,2013-05-06 07:31:00,
2013-05-06 02:36:00,34.4,32.9,30.12,NE,36,0.0,0.0,94,0.00,FEW,,0.00,0.0,WeatherDisplay:10.37,2013-05-06 07:36:00,
2013-05-06 02:41:00,34.4,32.9,30.12,NE,36,0.0,0.0,94,0.00,FEW,,0.00,0.0,WeatherDisplay:10.37,2013-05-06 07:41:00,
2013-05-06 02:46:00,34.4,32.9,30.12,NE,36,0.0,0.0,94,0.00,FEW,,0.00,0.0,WeatherDisplay:10.37,2013-05-06 07:46:00,
2013-05-06 02:51:00,34.2,32.7,30.12,NE,36,0.0,0.0,94,0.00,FEW,,0.00,0.0,WeatherDisplay:10.37,2013-05-06 07:51:00,
2013-05-06 02:56:00,34.2,32.7,30.12,NE,36,0.0,0.0,94,0.00,FEW,,0.00,0.0,WeatherDisplay:10.37,2013-05-06 07:56:00,
2013-05-06 03:02:00,34.1,32.6,30.12,NE,36,0.0,0.0,94,0.00,FEW,,0.00,0.0,WeatherDisplay:10.37,2013-05-06 08:02:00,
2013-05-06 03:07:00,33.9,32.4,30.12,NE,36,0.0,0.0,94,0.00,FEW,,0.00,0.0,WeatherDisplay:10.37,2013-05-06 08:07:00,
2013-05-06 03:12:00,33.8,32.3,30.12,NE,36,0.0,0.0,94,0.00,FEW,,0.00,0.0,WeatherDisplay:10.37,2013-05-06 08:12:00,
2013-05-06 03:17:00,33.7,32.2,30.12,NE,36,0.0,0.0,94,0.00,FEW,,0.00,0.0,WeatherDisplay:10.37,2013-05-06 08:17:00,
2013-05-06 03:22:00,33.6,32.1,30.12,NE,36,0.0,0.0,94,0.00,FEW,,0.00,0.0,WeatherDisplay:10.37,2013-05-06 08:22:00,
2013-05-06 03:27:00,33.5,32.0,30.12,NE,36,0.0,0.0,94,0.00,FEW,,0.00,0.0,WeatherDisplay:10.37,2013-05-06 08:27:00,
2013-05-06 03:32:00,33.4,31.9,30.12,NE,36,0.0,0.0,94,0.00,FEW,,0.00,0.0,WeatherDisplay:10.37,2013-05-06 08:32:00,
2013-05-06 03:37:00,33.3,31.8,30.13,NE,36,0.0,0.0,94,0.00,FEW,,0.00,0.0,WeatherDisplay:10.37,2013-05-06 08:37:00,
2013-05-06 03:42:00,33.2,31.7,30.13,NE,36,0.0,0.0,94,0.00,FEW,,0.00,0.0,WeatherDisplay:10.37,2013-05-06 08:42:00,
2013-05-06 03:47:00,33.0,31.5,30.13,NE,36,0.0,0.0,94,0.00,FEW,,0.00,0.0,WeatherDisplay:10.37,2013-05-06 08:47:00,
2013-05-06 03:52:00,32.9,31.4,30.13,NE,36,0.0,0.0,94,0.00,FEW,,0.00,0.0,WeatherDisplay:10.37,2013-05-06 08:52:00,
2013-05-06 03:57:00,32.8,31.3,30.13,NE,36,0.0,0.0,94,0.00,FEW,,0.00,0.0,WeatherDisplay:10.37,2013-05-06 08:57:00,
2013-05-06 04:02:00,32.8,31.3,30.13,NE,36,0.0,0.0,94,0.00,FEW,,0.00,0.0,WeatherDisplay:10.37,2013-05-06 09:02:00,
2013-05-06 04:07:00,32.6,31.1,30.13,NE,36,0.0,0.0,94,0.00,FEW,,0.00,0.0,WeatherDisplay:10.37,2013-05-06 09:07:00,
2013-05-06 04:12:00,32.5,31.0,30.13,NE,36,0.0,0.0,94,0.00,FEW,,0.00,0.0,WeatherDisplay:10.37,2013-05-06 09:12:00,
2013-05-06 04:17:00,32.4,30.9,30.13,NE,36,0.0,0.0,94,0.00,FEW,,0.00,0.0,WeatherDisplay:10.37,2013-05-06 09:17:00,
2013-05-06 04:22:00,32.3,30.8,30.13,NE,36,0.0,0.0,94,0.00,FEW,,0.00,0.0,WeatherDisplay:10.37,2013-05-06 09:22:00,
2013-05-06 04:27:00,32.3,30.8,30.13,NE,36,0.0,0.0,94,0.00,FEW,,0.00,0.0,WeatherDisplay:10.37,2013-05-06 09:27:00,
2013-05-06 04:32:00,32.2,30.7,30.13,NE,36,0.0,0.0,94,0.00,FEW,,0.00,0.0,WeatherDisplay:10.37,2013-05-06 09:32:00,
2013-05-06 04:37:00,32.1,30.6,30.13,NE,36,0.0,0.0,94,0.00,FEW,,0.00,0.0,WeatherDisplay:10.37,2013-05-06 09:37:00,
2013-05-06 04:42:00,32.0,30.7,30.13,NE,36,0.0,0.0,95,0.00,FEW,,0.00,0.0,WeatherDisplay:10.37,2013-05-06 09:42:00,
2013-05-06 04:47:00,32.0,30.7,30.13,NE,36,0.0,0.0,95,0.00,FEW,,0.00,0.0,WeatherDisplay:10.37,2013-05-06 09:47:00,
2013-05-06 04:52:00,31.9,30.6,30.13,NE,36,0.0,0.0,95,0.00,FEW,,0.00,0.0,WeatherDisplay:10.37,2013-05-06 09:52:00,
2013-05-06 04:57:00,31.8,30.5,30.13,NE,36,0.0,0.0,95,0.00,FEW,,0.00,0.0,WeatherDisplay:10.37,2013-05-06 09:57:00,
2013-05-06 05:02:00,31.7,30.2,30.13,NE,36,0.0,0.0,94,0.00,FEW,,0.00,0.0,WeatherDisplay:10.37,2013-05-06 10:02:00,
2013-05-06 05:07:00,31.6,30.1,30.13,NE,36,0.0,0.0,94,0.00,FEW,,0.00,0.0,WeatherDisplay:10.37,2013-05-06 10:07:00,
2013-05-06 05:12:00,31.6,30.3,30.13,NE,36,0.0,0.0,95,0.00,FEW,,0.00,0.0,WeatherDisplay:10.37,2013-05-06 10:12:00,
2013-05-06 05:17:00,31.5,30.2,30.13,NE,36,0.0,0.0,95,0.00,FEW,,0.00,0.0,WeatherDisplay:10.37,2013-05-06 10:17:00,
2013-05-06 05:22:00,31.4,30.1,30.13,NE,36,0.0,0.0,95,0.00,FEW,,0.00,0.0,WeatherDisplay:10.37,2013-05-06 10:22:00,
2013-05-06 05:27:00,31.3,30.0,30.13,NE,36,0.0,0.0,95,0.00,FEW,,0.00,0.0,WeatherDisplay:10.37,2013-05-06 10:27:00,
2013-05-06 05:32:00,31.3,30.0,30.13,NE,36,0.0,0.0,95,0.00,FEW,,0.00,0.0,WeatherDisplay:10.37,2013-05-06 10:32:00,
2013-05-06 05:37:00,31.2,29.9,30.13,NE,36,0.0,0.0,95,0.00,FEW,,0.00,0.0,WeatherDisplay:10.37,2013-05-06 10:37:00,
2013-05-06 05:42:00,31.1,29.8,30.13,NE,36,0.0,0.0,95,0.00,FEW,,0.00,0.0,WeatherDisplay:10.37,2013-05-06 10:42:00,
2013-05-06 05:47:00,31.1,29.8,30.13,NE,36,0.0,0.0,95,0.00,FEW,,0.00,0.0,WeatherDisplay:10.37,2013-05-06 10:47:00,
2013-05-06 05:52:00,31.0,29.7,30.13,NE,36,0.0,0.0,95,0.00,FEW,,0.00,0.0,WeatherDisplay:10.37,2013-05-06 10:52:00,
2013-05-06 05:57:00,31.0,29.7,30.13,NE,36,0.0,0.0,95,0.00,FEW,,0.00,5.0,WeatherDisplay:10.37,2013-05-06 10:57:00,
2013-05-06 06:02:00,31.0,29.7,30.14,NE,36,0.0,0.0,95,0.00,CLR,,0.00,7.0,WeatherDisplay:10.37,2013-05-06 11:02:00,
2013-05-06 06:07:00,31.0,29.7,30.14,NE,36,0.0,0.0,95,0.00,CLR,,0.00,9.0,WeatherDisplay:10.37,2013-05-06 11:07:00,
2013-05-06 06:12:00,31.0,29.7,30.14,NE,36,0.0,0.0,95,0.00,CLR,,0.00,9.0,WeatherDisplay:10.37,2013-05-06 11:12:00,
2013-05-06 06:17:00,31.1,29.8,30.14,NE,36,0.0,0.0,95,0.00,CLR,,0.00,11.0,WeatherDisplay:10.37,2013-05-06 11:17:00,
2013-05-06 06:22:00,31.2,29.9,30.14,NE,36,0.0,0.0,95,0.00,CLR,,0.00,12.0,WeatherDisplay:10.37,2013-05-06 11:22:00,
2013-05-06 06:27:00,31.3,30.0,30.14,NE,36,0.0,0.0,95,0.00,CLR,,0.00,14.0,WeatherDisplay:10.37,2013-05-06 11:27:00,
2013-05-06 06:32:00,31.4,30.4,30.14,NE,36,0.0,0.0,96,0.00,CLR,,0.00,16.0,WeatherDisplay:10.37,2013-05-06 11:32:00,
2013-05-06 06:37:00,31.5,30.5,30.14,NE,36,0.0,0.0,96,0.00,CLR,,0.00,19.0,WeatherDisplay:10.37,2013-05-06 11:37:00,
2013-05-06 06:42:00,31.7,30.7,30.14,NE,36,0.0,0.0,96,0.00,CLR,,0.00,19.0,WeatherDisplay:10.37,2013-05-06 11:42:00,
2013-05-06 06:47:00,31.9,30.9,30.14,NE,36,0.0,0.0,96,0.00,CLR,,0.00,23.0,WeatherDisplay:10.37,2013-05-06 11:47:00,
2013-05-06 06:52:00,32.1,31.1,30.15,NE,36,0.0,0.0,96,0.00,CLR,,0.00,25.0,WeatherDisplay:10.37,2013-05-06 11:52:00,
2013-05-06 06:57:00,32.3,31.3,30.15,NE,36,0.0,0.0,96,0.00,CLR,,0.00,46.0,WeatherDisplay:10.37,2013-05-06 11:57:00,
2013-05-06 07:02:00,32.7,31.7,30.15,NE,36,0.0,0.0,96,0.00,CLR,,0.00,37.0,WeatherDisplay:10.37,2013-05-06 12:02:00,
2013-05-06 07:07:00,33.0,32.0,30.15,NE,36,0.0,0.0,96,0.00,CLR,,0.00,26.0,WeatherDisplay:10.37,2013-05-06 12:07:00,
2013-05-06 07:12:00,33.4,32.4,30.15,NE,36,1.0,0.0,96,0.00,CLR,,0.00,28.0,WeatherDisplay:10.37,2013-05-06 12:12:00,
2013-05-06 07:17:00,33.7,32.7,30.15,NE,36,0.0,0.0,96,0.00,CLR,,0.00,33.0,WeatherDisplay:10.37,2013-05-06 12:17:00,
2013-05-06 07:22:00,34.4,33.4,30.15,NE,36,0.0,0.0,96,0.00,CLR,,0.00,40.0,WeatherDisplay:10.37,2013-05-06 12:22:00,
2013-05-06 07:27:00,35.0,34.0,30.15,NE,36,0.0,0.0,96,0.00,CLR,,0.00,171.0,WeatherDisplay:10.37,2013-05-06 12:27:00,
2013-05-06 07:32:00,35.8,34.8,30.15,NE,34,0.0,0.0,96,0.00,CLR,,0.00,130.0,WeatherDisplay:10.37,2013-05-06 12:32:00,
2013-05-06 07:37:00,36.8,36.0,30.15,NE,34,0.0,0.0,97,0.00,CLR,,0.00,63.0,WeatherDisplay:10.37,2013-05-06 12:37:00,
2013-05-06 07:42:00,37.5,36.7,30.15,NE,34,0.0,0.0,97,0.00,CLR,,0.00,139.0,WeatherDisplay:10.37,2013-05-06 12:42:00,
2013-05-06 07:47:00,38.0,37.0,30.15,North,11,0.0,0.0,96,0.00,CLR,,0.00,230.0,WeatherDisplay:10.37,2013-05-06 12:47:00,
2013-05-06 07:52:00,38.5,37.5,30.15,North,11,0.0,0.0,96,0.00,CLR,,0.00,109.0,WeatherDisplay:10.37,2013-05-06 12:52:00,
2013-05-06 07:57:00,39.1,37.2,30.15,North,11,0.0,0.0,93,0.00,CLR,,0.00,199.0,WeatherDisplay:10.37,2013-05-06 12:57:00,
2013-05-06 08:02:00,39.5,37.1,30.15,North,11,0.0,0.0,91,0.00,CLR,,0.00,120.0,WeatherDisplay:10.37,2013-05-06 13:02:00,
2013-05-06 08:07:00,39.9,37.2,30.15,North,11,0.0,0.0,90,0.00,CLR,,0.00,67.0,WeatherDisplay:10.37,2013-05-06 13:07:00,
2013-05-06 08:12:00,40.4,37.4,30.15,North,11,0.0,0.0,89,0.00,CLR,,0.00,46.0,WeatherDisplay:10.37,2013-05-06 13:12:00,
2013-05-06 08:17:00,40.7,37.7,30.15,North,11,0.0,0.0,89,0.00,CLR,,0.00,40.0,WeatherDisplay:10.37,2013-05-06 13:17:00,
2013-05-06 08:23:00,41.2,37.6,30.15,North,10,1.1,1.1,87,0.00,CLR,,0.00,44.0,WeatherDisplay:10.37,2013-05-06 13:23:00,
2013-05-06 08:28:00,41.5,37.9,30.16,North,10,0.0,0.0,87,0.00,CLR,,0.00,40.0,WeatherDisplay:10.37,2013-05-06 13:28:00,
2013-05-06 08:33:00,41.9,38.3,30.15,North,10,0.0,0.1,87,0.00,CLR,,0.00,44.0,WeatherDisplay:10.37,2013-05-06 13:33:00,
2013-05-06 08:38:00,42.7,38.5,30.15,North,5,0.0,0.0,85,0.00,CLR,,0.00,42.0,WeatherDisplay:10.37,2013-05-06 13:38:00,
2013-05-06 08:43:00,43.2,38.7,30.16,North,5,0.0,0.0,84,0.00,CLR,,0.00,54.0,WeatherDisplay:10.37,2013-05-06 13:43:00,
2013-05-06 08:48:00,43.8,38.7,30.15,North,5,0.0,0.0,82,0.00,CLR,,0.00,77.0,WeatherDisplay:10.37,2013-05-06 13:48:00,
2013-05-06 08:53:00,44.3,38.8,30.16,North,5,0.0,0.0,81,0.00,CLR,,0.00,79.0,WeatherDisplay:10.37,2013-05-06 13:53:00,
2013-05-06 08:58:00,45.0,39.2,30.16,NW,324,1.1,1.1,80,0.00,CLR,,0.00,63.0,WeatherDisplay:10.37,2013-05-06 13:58:00,
2013-05-06 09:03:00,45.3,39.2,30.15,NW,326,1.1,0.0,79,0.00,CLR,,0.00,287.0,WeatherDisplay:10.37,2013-05-06 14:03:00,
2013-05-06 09:08:00,45.8,39.3,30.15,NW,326,0.0,0.1,78,0.00,CLR,,0.00,88.0,WeatherDisplay:10.37,2013-05-06 14:08:00,
2013-05-06 09:13:00,46.5,39.7,30.15,NNW,329,1.1,0.0,77,0.00,CLR,,0.00,60.0,WeatherDisplay:10.37,2013-05-06 14:13:00,
2013-05-06 09:18:00,47.3,39.8,30.15,North,5,1.1,1.1,75,0.00,CLR,,0.00,53.0,WeatherDisplay:10.37,2013-05-06 14:18:00,
2013-05-06 09:23:00,47.8,39.9,30.15,North,5,2.3,2.3,74,0.00,CLR,,0.00,56.0,WeatherDisplay:10.37,2013-05-06 14:23:00,
2013-05-06 09:28:00,48.2,40.3,30.14,North,5,1.1,1.1,74,0.00,CLR,,0.00,60.0,WeatherDisplay:10.37,2013-05-06 14:28:00,
2013-05-06 09:33:00,48.6,40.3,30.15,WNW,286,2.3,2.3,73,0.00,CLR,,0.00,69.0,WeatherDisplay:10.37,2013-05-06 14:33:00,
2013-05-06 09:38:00,49.0,40.7,30.15,WNW,302,1.1,1.1,73,0.00,CLR,,0.00,65.0,WeatherDisplay:10.37,2013-05-06 14:38:00,
2013-05-06 09:43:00,49.5,41.2,30.15,NW,306,0.0,0.0,73,0.00,CLR,,0.00,65.0,WeatherDisplay:10.37,2013-05-06 14:43:00,
2013-05-06 09:48:00,49.9,41.6,30.15,NW,306,0.0,0.1,73,0.00,CLR,,0.00,63.0,WeatherDisplay:10.37,2013-05-06 14:48:00,
2013-05-06 09:53:00,50.3,41.3,30.14,NW,307,3.5,3.5,71,0.00,CLR,,0.00,76.0,WeatherDisplay:10.37,2013-05-06 14:53:00,
2013-05-06 09:58:00,50.7,41.6,30.14,NW,307,1.1,0.0,71,0.00,CLR,,0.00,83.0,WeatherDisplay:10.37,2013-05-06 14:58:00,
2013-05-06 10:03:00,51.5,42.0,30.14,WNW,296,2.3,2.3,70,0.00,CLR,,0.00,95.0,WeatherDisplay:10.37,2013-05-06 15:03:00,
2013-05-06 10:08:00,52.0,42.1,30.14,WNW,288,3.5,3.5,69,0.00,CLR,,0.00,98.0,WeatherDisplay:10.37,2013-05-06 15:08:00,
2013-05-06 10:13:00,52.3,42.0,30.14,NNW,333,1.1,0.0,68,0.00,CLR,,0.00,116.0,WeatherDisplay:10.37,2013-05-06 15:13:00,
2013-05-06 10:18:00,52.8,41.7,30.14,WNW,293,2.3,2.3,66,0.00,CLR,,0.00,142.0,WeatherDisplay:10.37,2013-05-06 15:18:00,
2013-05-06 10:23:00,53.6,42.1,30.14,WNW,288,2.3,2.3,65,0.00,CLR,,0.00,162.0,WeatherDisplay:10.37,2013-05-06 15:23:00,
2013-05-06 10:28:00,54.5,42.6,30.14,West,273,2.3,2.3,64,0.00,CLR,,0.00,167.0,WeatherDisplay:10.37,2013-05-06 15:28:00,
2013-05-06 10:33:00,54.9,42.5,30.13,West,273,0.0,0.0,63,0.00,CLR,,0.00,176.0,WeatherDisplay:10.37,2013-05-06 15:33:00,
2013-05-06 10:38:00,55.2,42.4,30.14,West,271,2.3,2.3,62,0.00,CLR,,0.00,185.0,WeatherDisplay:10.37,2013-05-06 15:38:00,
2013-05-06 10:43:00,55.7,42.9,30.14,West,271,1.0,0.0,62,0.00,CLR,,0.00,204.0,WeatherDisplay:10.37,2013-05-06 15:43:00,
2013-05-06 10:48:00,56.3,42.6,30.13,West,273,0.0,0.0,60,0.00,CLR,,0.00,190.0,WeatherDisplay:10.37,2013-05-06 15:48:00,
2013-05-06 10:53:00,57.1,42.9,30.13,West,277,1.1,1.1,59,0.00,CLR,,0.00,315.0,WeatherDisplay:10.37,2013-05-06 15:53:00,
2013-05-06 10:58:00,58.0,42.8,30.13,West,279,2.3,2.3,57,0.00,CLR,,0.00,441.0,WeatherDisplay:10.37,2013-05-06 15:58:00,
2013-05-06 11:03:00,58.8,43.1,30.13,West,279,0.0,0.0,56,0.00,CLR,,0.00,654.0,WeatherDisplay:10.37,2013-05-06 16:03:00,
2013-05-06 11:08:00,59.6,43.4,30.13,West,279,0.0,0.1,55,0.00,CLR,,0.00,552.0,WeatherDisplay:10.37,2013-05-06 16:08:00,
2013-05-06 11:13:00,60.1,43.4,30.13,West,271,1.1,0.0,54,0.00,CLR,,0.00,494.0,WeatherDisplay:10.37,2013-05-06 16:13:00,
2013-05-06 11:18:00,60.5,43.3,30.13,WNW,292,1.1,0.0,53,0.00,CLR,,0.00,624.0,WeatherDisplay:10.37,2013-05-06 16:18:00,
2013-05-06 11:23:00,61.3,43.5,30.13,WNW,298,0.0,0.0,52,0.00,CLR,,0.00,758.0,WeatherDisplay:10.37,2013-05-06 16:23:00,
2013-05-06 11:28:00,62.4,43.5,30.13,NNE,27,1.1,0.0,50,0.00,CLR,,0.00,803.0,WeatherDisplay:10.37,2013-05-06 16:28:00,
2013-05-06 11:33:00,62.7,44.3,30.13,WNW,287,3.5,3.5,51,0.00,CLR,,0.00,809.0,WeatherDisplay:10.37,2013-05-06 16:33:00,
2013-05-06 11:38:00,63.0,43.5,30.13,WNW,292,1.1,1.1,49,0.00,CLR,,0.00,854.0,WeatherDisplay:10.37,2013-05-06 16:38:00,
2013-05-06 11:43:00,63.5,42.9,30.13,West,271,1.0,1.0,47,0.00,CLR,,0.00,896.0,WeatherDisplay:10.37,2013-05-06 16:43:00,
2013-05-06 11:48:00,63.9,43.3,30.13,West,267,0.0,0.0,47,0.00,CLR,,0.00,893.0,WeatherDisplay:10.37,2013-05-06 16:48:00,
2013-05-06 11:53:00,64.8,43.5,30.12,NW,309,0.0,0.0,46,0.00,CLR,,0.00,865.0,WeatherDisplay:10.37,2013-05-06 16:53:00,
2013-05-06 11:58:00,65.2,42.7,30.12,WNW,288,2.3,2.3,44,0.00,CLR,,0.00,867.0,WeatherDisplay:10.37,2013-05-06 16:58:00,
2013-05-06 12:03:00,65.5,42.4,30.12,SW,227,3.5,3.5,43,0.00,CLR,,0.00,872.0,WeatherDisplay:10.37,2013-05-06 17:03:00,
2013-05-06 12:08:00,66.0,42.9,30.12,North,5,2.3,2.3,43,0.00,CLR,,0.00,896.0,WeatherDisplay:10.37,2013-05-06 17:08:00,
2013-05-06 12:13:00,66.7,43.5,30.12,West,262,0.0,0.0,43,0.00,CLR,,0.00,905.0,WeatherDisplay:10.37,2013-05-06 17:13:00,
2013-05-06 12:18:00,66.8,41.7,30.12,WSW,257,3.5,3.5,40,0.00,CLR,,0.00,933.0,WeatherDisplay:10.37,2013-05-06 17:18:00,
2013-05-06 12:23:00,66.7,42.2,30.12,West,279,2.0,2.0,41,0.00,CLR,,0.00,947.0,WeatherDisplay:10.37,2013-05-06 17:23:00,
2013-05-06 12:28:00,66.7,41.6,30.12,WSW,257,3.5,3.5,40,0.00,CLR,,0.00,960.0,WeatherDisplay:10.37,2013-05-06 17:28:00,
2013-05-06 12:33:00,67.1,42.6,30.11,NNW,343,1.0,0.0,41,0.00,CLR,,0.00,916.0,WeatherDisplay:10.37,2013-05-06 17:33:00,
2013-05-06 12:38:00,67.6,41.1,30.11,West,279,2.3,2.3,38,0.00,CLR,,0.00,947.0,WeatherDisplay:10.37,2013-05-06 17:38:00,
2013-05-06 12:43:00,68.0,42.1,30.11,NNE,22,1.1,1.1,39,0.00,CLR,,0.00,946.0,WeatherDisplay:10.37,2013-05-06 17:43:00,
2013-05-06 12:48:00,68.3,42.4,30.11,West,262,3.5,3.5,39,0.00,CLR,,0.00,970.0,WeatherDisplay:10.37,2013-05-06 17:48:00,
2013-05-06 12:53:00,68.3,41.7,30.11,NW,309,2.3,2.3,38,0.00,CLR,,0.00,969.0,WeatherDisplay:10.37,2013-05-06 17:53:00,
2013-05-06 12:58:00,68.6,42.6,30.11,WNW,302,1.1,1.1,39,0.00,CLR,,0.00,965.0,WeatherDisplay:10.37,2013-05-06 17:58:00,
2013-05-06 13:03:00,68.9,43.6,30.11,North,5,3.5,3.5,40,0.00,CLR,,0.00,960.0,WeatherDisplay:10.37,2013-05-06 18:03:00,
2013-05-06 13:08:00,69.2,43.2,30.11,WSW,244,3.5,3.5,39,0.00,CLR,,0.00,963.0,WeatherDisplay:10.37,2013-05-06 18:08:00,
2013-05-06 13:13:00,69.4,43.4,30.11,WNW,292,2.3,2.3,39,0.00,CLR,,0.00,944.0,WeatherDisplay:10.37,2013-05-06 18:13:00,
2013-05-06 13:18:00,69.6,44.2,30.11,North,350,1.1,1.1,40,0.00,CLR,,0.00,962.0,WeatherDisplay:10.37,2013-05-06 18:18:00,
2013-05-06 13:23:00,70.1,44.0,30.10,North,5,0.0,0.0,39,0.00,CLR,,0.00,965.0,WeatherDisplay:10.37,2013-05-06 18:23:00,
2013-05-06 13:28:00,69.9,43.1,30.10,West,269,2.3,2.3,38,0.00,CLR,,0.00,958.0,WeatherDisplay:10.37,2013-05-06 18:28:00,
2013-05-06 13:33:00,69.9,43.8,30.10,WNW,290,2.3,2.3,39,0.00,CLR,,0.00,958.0,WeatherDisplay:10.37,2013-05-06 18:33:00,
2013-05-06 13:38:00,70.3,42.8,30.10,North,355,3.5,3.5,37,0.00,CLR,,0.00,954.0,WeatherDisplay:10.37,2013-05-06 18:38:00,
2013-05-06 13:44:00,70.4,44.3,30.10,North,5,1.1,1.1,39,0.00,CLR,,0.00,953.0,WeatherDisplay:10.37,2013-05-06 18:44:00,
2013-05-06 13:49:00,70.6,44.4,30.10,NNE,19,1.1,1.1,39,0.00,CLR,,0.00,947.0,WeatherDisplay:10.37,2013-05-06 18:49:00,
2013-05-06 13:54:00,71.0,44.1,30.10,NE,53,1.1,1.1,38,0.00,CLR,,0.00,944.0,WeatherDisplay:10.37,2013-05-06 18:54:00,
2013-05-06 13:59:00,70.9,45.4,30.09,North,5,2.3,2.3,40,0.00,CLR,,0.00,942.0,WeatherDisplay:10.37,2013-05-06 18:59:00,
2013-05-06 14:04:00,70.8,45.3,30.09,North,355,3.5,3.5,40,0.00,CLR,,0.00,935.0,WeatherDisplay:10.37,2013-05-06 19:04:00,
2013-05-06 14:09:00,70.9,43.3,30.09,NNE,22,3.5,3.5,37,0.00,CLR,,0.00,932.0,WeatherDisplay:10.37,2013-05-06 19:09:00,
2013-05-06 14:14:00,70.8,44.6,30.09,NE,55,1.1,1.1,39,0.00,CLR,,0.00,925.0,WeatherDisplay:10.37,2013-05-06 19:14:00,
2013-05-06 14:19:00,71.0,46.1,30.09,East,82,2.3,2.3,41,0.00,CLR,,0.00,921.0,WeatherDisplay:10.37,2013-05-06 19:19:00,
2013-05-06 14:24:00,70.8,45.9,30.09,NE,45,3.5,3.5,41,0.00,CLR,,0.00,914.0,WeatherDisplay:10.37,2013-05-06 19:24:00,
2013-05-06 14:29:00,70.9,44.0,30.09,North,355,0.0,0.6,38,0.00,CLR,,0.00,909.0,WeatherDisplay:10.37,2013-05-06 19:29:00,
2013-05-06 14:34:00,71.0,44.8,30.09,NNW,342,2.3,2.3,39,0.00,CLR,,0.00,909.0,WeatherDisplay:10.37,2013-05-06 19:34:00,
2013-05-06 14:39:00,71.1,47.5,30.08,NNE,32,1.1,0.0,43,0.00,CLR,,0.00,902.0,WeatherDisplay:10.37,2013-05-06 19:39:00,
2013-05-06 14:44:00,71.3,46.4,30.08,NE,51,3.5,3.5,41,0.00,CLR,,0.00,895.0,WeatherDisplay:10.37,2013-05-06 19:44:00,
2013-05-06 14:49:00,71.5,44.5,30.08,NE,54,1.1,1.1,38,0.00,CLR,,0.00,886.0,WeatherDisplay:10.37,2013-05-06 19:49:00,
2013-05-06 14:54:00,71.5,44.5,30.08,East,80,3.5,3.5,38,0.00,CLR,,0.00,877.0,WeatherDisplay:10.37,2013-05-06 19:54:00,
2013-05-06 14:59:00,71.6,44.6,30.08,North,350,3.5,3.5,38,0.00,CLR,,0.00,867.0,WeatherDisplay:10.37,2013-05-06 19:59:00,
2013-05-06 15:04:00,71.9,46.3,30.08,WSW,250,1.1,1.4,40,0.00,CLR,,0.00,861.0,WeatherDisplay:10.37,2013-05-06 20:04:00,
2013-05-06 15:09:00,72.3,45.9,30.08,NNW,348,0.0,0.0,39,0.00,CLR,,0.00,849.0,WeatherDisplay:10.37,2013-05-06 20:09:00,
2013-05-06 15:14:00,72.7,45.6,30.07,NE,46,2.3,2.3,38,0.00,CLR,,0.00,838.0,WeatherDisplay:10.37,2013-05-06 20:14:00,
2013-05-06 15:19:00,72.5,45.4,30.07,East,80,3.5,3.5,38,0.00,CLR,,0.00,830.0,WeatherDisplay:10.37,2013-05-06 20:19:00,
2013-05-06 15:24:00,71.7,46.1,30.07,East,80,0.0,0.0,40,0.00,CLR,,0.00,823.0,WeatherDisplay:10.37,2013-05-06 20:24:00,
2013-05-06 15:29:00,71.4,43.0,30.07,NNE,26,3.5,3.5,36,0.00,CLR,,0.00,810.0,WeatherDisplay:10.37,2013-05-06 20:29:00,
2013-05-06 15:34:00,70.8,41.8,30.07,East,80,3.5,3.5,35,0.00,CLR,,0.00,800.0,WeatherDisplay:10.37,2013-05-06 20:34:00,
2013-05-06 15:39:00,71.0,42.7,30.06,ENE,69,1.0,2.1,36,0.00,CLR,,0.00,791.0,WeatherDisplay:10.37,2013-05-06 20:39:00,
2013-05-06 15:44:00,71.5,43.1,30.06,NE,44,2.0,2.0,36,0.00,CLR,,0.00,780.0,WeatherDisplay:10.37,2013-05-06 20:44:00,
2013-05-06 15:49:00,72.0,42.8,30.06,North,360,4.6,4.6,35,0.00,CLR,,0.00,766.0,WeatherDisplay:10.37,2013-05-06 20:49:00,
2013-05-06 15:54:00,72.5,44.7,30.06,NNE,24,1.1,0.0,37,0.00,CLR,,0.00,761.0,WeatherDisplay:10.37,2013-05-06 20:54:00,
2013-05-06 15:59:00,73.0,43.7,30.06,North,11,1.1,1.1,35,0.00,CLR,,0.00,715.0,WeatherDisplay:10.37,2013-05-06 20:59:00,
2013-05-06 16:04:00,73.3,44.0,30.06,WNW,286,3.5,3.5,35,0.00,CLR,,0.00,724.0,WeatherDisplay:10.37,2013-05-06 21:04:00,
2013-05-06 16:09:00,72.8,43.5,30.06,NNW,327,3.5,3.5,35,0.00,CLR,,0.00,708.0,WeatherDisplay:10.37,2013-05-06 21:09:00,
2013-05-06 16:14:00,72.6,42.6,30.06,NW,307,1.1,1.1,34,0.00,CLR,,0.00,691.0,WeatherDisplay:10.37,2013-05-06 21:14:00,
2013-05-06 16:19:00,72.3,43.1,30.06,NW,325,3.5,3.5,35,0.00,CLR,,0.00,679.0,WeatherDisplay:10.37,2013-05-06 21:19:00,
2013-05-06 16:24:00,72.4,43.9,30.05,NW,317,0.0,0.0,36,0.00,CLR,,0.00,668.0,WeatherDisplay:10.37,2013-05-06 21:24:00,
2013-05-06 16:29:00,72.6,42.6,30.05,NNW,329,2.3,2.3,34,0.00,CLR,,0.00,663.0,WeatherDisplay:10.37,2013-05-06 21:29:00,
2013-05-06 16:34:00,72.5,41.7,30.05,West,260,3.5,3.5,33,0.00,CLR,,0.00,633.0,WeatherDisplay:10.37,2013-05-06 21:34:00,
2013-05-06 16:39:00,72.7,43.5,30.05,West,278,2.3,2.3,35,0.00,CLR,,0.00,633.0,WeatherDisplay:10.37,2013-05-06 21:39:00,
2013-05-06 16:44:00,72.7,41.9,30.05,WSW,250,2.3,2.3,33,0.00,CLR,,0.00,619.0,WeatherDisplay:10.37,2013-05-06 21:44:00,
2013-05-06 16:49:00,73.3,44.7,30.05,West,262,1.1,1.1,36,0.00,CLR,,0.00,603.0,WeatherDisplay:10.37,2013-05-06 21:49:00,
2013-05-06 16:54:00,73.5,44.2,30.05,ENE,60,2.3,2.3,35,0.00,CLR,,0.00,585.0,WeatherDisplay:10.37,2013-05-06 21:54:00,
2013-05-06 16:59:00,73.3,44.0,30.05,NNE,13,1.1,0.0,35,0.00,CLR,,0.00,575.0,WeatherDisplay:10.37,2013-05-06 21:59:00,
2013-05-06 17:04:00,72.9,43.6,30.05,NE,49,1.1,1.1,35,0.00,CLR,,0.00,557.0,WeatherDisplay:10.37,2013-05-06 22:04:00,
2013-05-06 17:09:00,72.7,44.2,30.05,NE,51,0.0,0.0,36,0.00,CLR,,0.00,541.0,WeatherDisplay:10.37,2013-05-06 22:09:00,
2013-05-06 17:14:00,72.5,44.0,30.05,NE,51,1.1,1.1,36,0.00,CLR,,0.00,527.0,WeatherDisplay:10.37,2013-05-06 22:14:00,
2013-05-06 17:19:00,72.4,43.2,30.05,NE,51,1.1,0.0,35,0.00,CLR,,0.00,510.0,WeatherDisplay:10.37,2013-05-06 22:19:00,
2013-05-06 17:24:00,72.4,43.9,30.05,WNW,282,1.1,0.0,36,0.00,CLR,,0.00,427.0,WeatherDisplay:10.37,2013-05-06 22:24:00,
2013-05-06 17:29:00,72.3,41.6,30.05,ENE,69,1.1,1.1,33,0.00,CLR,,0.00,287.0,WeatherDisplay:10.37,2013-05-06 22:29:00,
2013-05-06 17:34:00,72.2,42.3,30.05,ENE,57,0.0,0.0,34,0.00,CLR,,0.00,408.0,WeatherDisplay:10.37,2013-05-06 22:34:00,
2013-05-06 17:39:00,72.0,42.8,30.05,ENE,57,0.0,0.0,35,0.00,CLR,,0.00,346.0,WeatherDisplay:10.37,2013-05-06 22:39:00,
2013-05-06 17:44:00,71.5,43.8,30.05,ENE,77,1.1,1.1,37,0.00,CLR,,0.00,269.0,WeatherDisplay:10.37,2013-05-06 22:44:00,
2013-05-06 17:49:00,70.5,40.8,30.04,NW,306,2.3,2.3,34,0.00,CLR,,0.00,163.0,WeatherDisplay:10.37,2013-05-06 22:49:00,
2013-05-06 17:54:00,69.9,41.0,30.04,NW,306,1.1,1.1,35,0.00,CLR,,0.00,79.0,WeatherDisplay:10.37,2013-05-06 22:54:00,
2013-05-06 17:59:00,69.6,40.7,30.04,NNW,340,2.3,2.3,35,0.00,CLR,,0.00,62.0,WeatherDisplay:10.37,2013-05-06 22:59:00,
2013-05-06 18:04:00,69.2,41.8,30.04,ENE,59,3.5,3.5,37,0.00,CLR,,0.00,47.0,WeatherDisplay:10.37,2013-05-06 23:04:00,
2013-05-06 18:09:00,68.8,40.0,30.04,ENE,59,2.3,2.3,35,0.00,CLR,,0.00,46.0,WeatherDisplay:10.37,2013-05-06 23:09:00,
2013-05-06 18:14:00,68.5,42.6,30.04,ENE,59,0.0,0.0,39,0.00,CLR,,0.00,42.0,WeatherDisplay:10.37,2013-05-06 23:14:00,
2013-05-06 18:19:00,67.9,42.7,30.04,ENE,59,1.0,1.0,40,0.00,CLR,,0.00,40.0,WeatherDisplay:10.37,2013-05-06 23:19:00,
2013-05-06 18:24:00,67.6,41.7,30.04,ENE,59,0.0,0.0,39,0.00,CLR,,0.00,39.0,WeatherDisplay:10.37,2013-05-06 23:24:00,
2013-05-06 18:29:00,67.1,40.6,30.04,ENE,59,1.1,1.1,38,0.00,CLR,,0.00,39.0,WeatherDisplay:10.37,2013-05-06 23:29:00,
2013-05-06 18:34:00,66.5,43.3,30.04,ENE,59,0.0,0.0,43,0.00,CLR,,0.00,37.0,WeatherDisplay:10.37,2013-05-06 23:34:00,
2013-05-06 18:39:00,65.5,40.5,30.04,NNE,16,1.1,1.1,40,0.00,CLR,,0.00,37.0,WeatherDisplay:10.37,2013-05-06 23:39:00,
2013-05-06 18:44:00,65.2,41.5,30.04,NW,323,2.3,2.3,42,0.00,CLR,,0.00,32.0,WeatherDisplay:10.37,2013-05-06 23:44:00,
2013-05-06 18:49:00,64.6,41.6,30.04,NW,323,0.0,0.0,43,0.00,CLR,,0.00,32.0,WeatherDisplay:10.37,2013-05-06 23:49:00,
2013-05-06 18:54:00,63.8,42.0,30.04,NW,323,0.0,0.0,45,0.00,CLR,,0.00,30.0,WeatherDisplay:10.37,2013-05-06 23:54:00,
2013-05-06 18:59:00,63.0,42.4,30.04,NW,323,0.0,0.0,47,0.00,CLR,,0.00,28.0,WeatherDisplay:10.37,2013-05-06 23:59:00,
2013-05-06 19:05:00,62.3,41.8,30.04,NW,323,0.0,0.0,47,0.00,CLR,,0.00,26.0,WeatherDisplay:10.37,2013-05-07 00:05:00,
2013-05-06 19:10:00,61.9,42.0,30.04,NW,323,0.0,0.0,48,0.00,CLR,,0.00,25.0,WeatherDisplay:10.37,2013-05-07 00:10:00,
2013-05-06 19:15:00,61.4,42.6,30.03,NW,323,0.0,0.0,50,0.00,CLR,,0.00,23.0,WeatherDisplay:10.37,2013-05-07 00:15:00,
2013-05-06 19:20:00,60.7,41.4,30.03,NW,323,0.0,0.0,49,0.00,CLR,,0.00,21.0,WeatherDisplay:10.37,2013-05-07 00:20:00,
2013-05-06 19:25:00,60.2,42.5,30.03,NW,323,0.0,0.0,52,0.00,CLR,,0.00,19.0,WeatherDisplay:10.37,2013-05-07 00:25:00,
2013-05-06 19:30:00,59.7,41.5,30.03,NW,323,0.0,0.0,51,0.00,CLR,,0.00,18.0,WeatherDisplay:10.37,2013-05-07 00:30:00,
2013-05-06 19:35:00,58.9,41.8,30.03,NW,323,0.0,0.0,53,0.00,CLR,,0.00,18.0,WeatherDisplay:10.37,2013-05-07 00:35:00,
2013-05-06 19:40:00,58.0,41.4,30.03,NW,323,0.0,0.0,54,0.00,CLR,,0.00,14.0,WeatherDisplay:10.37,2013-05-07 00:40:00,
2013-05-06 19:45:00,57.4,41.4,30.03,NW,323,0.0,0.0,55,0.00,CLR,,0.00,12.0,WeatherDisplay:10.37,2013-05-07 00:45:00,
2013-05-06 19:50:00,57.0,41.9,30.03,NW,323,0.0,0.0,57,0.00,CLR,,0.00,11.0,WeatherDisplay:10.37,2013-05-07 00:50:00,
2013-05-06 19:55:00,56.7,41.6,30.03,NW,323,0.0,0.0,57,0.00,CLR,,0.00,9.0,WeatherDisplay:10.37,2013-05-07 00:55:00,
2013-05-06 20:00:00,56.3,41.7,30.04,NW,323,0.0,0.0,58,0.00,CLR,,0.00,7.0,WeatherDisplay:10.37,2013-05-07 01:00:00,
2013-05-06 20:05:00,55.7,41.6,30.04,NW,323,0.0,0.0,59,0.00,CLR,,0.00,5.0,WeatherDisplay:10.37,2013-05-07 01:05:00,
2013-05-06 20:10:00,55.1,41.5,30.04,NW,323,0.0,0.0,60,0.00,CLR,,0.00,0.0,WeatherDisplay:10.37,2013-05-07 01:10:00,
2013-05-06 20:15:00,54.6,41.4,30.03,NW,323,0.0,0.0,61,0.00,CLR,,0.00,0.0,WeatherDisplay:10.37,2013-05-07 01:15:00,
2013-05-06 20:20:00,54.2,41.0,30.03,NW,323,0.0,0.0,61,0.00,CLR,,0.00,0.0,WeatherDisplay:10.37,2013-05-07 01:20:00,
2013-05-06 20:25:00,53.6,41.3,30.03,NW,323,0.0,0.0,63,0.00,CLR,,0.00,0.0,WeatherDisplay:10.37,2013-05-07 01:25:00,
2013-05-06 20:30:00,53.1,40.8,30.03,NW,323,0.0,0.0,63,0.00,CLR,,0.00,0.0,WeatherDisplay:10.37,2013-05-07 01:30:00,
2013-05-06 20:35:00,52.6,41.9,30.04,NW,323,0.0,0.0,67,0.00,CLR,,0.00,0.0,WeatherDisplay:10.37,2013-05-07 01:35:00,
2013-05-06 20:40:00,52.0,42.1,30.04,NW,323,0.0,0.0,69,0.00,CLR,,0.00,0.0,WeatherDisplay:10.37,2013-05-07 01:40:00,
2013-05-06 20:45:00,51.5,40.9,30.04,NW,323,0.0,0.0,67,0.00,CLR,,0.00,0.0,WeatherDisplay:10.37,2013-05-07 01:45:00,
2013-05-06 20:50:00,51.0,40.8,30.04,NW,323,0.0,0.0,68,0.00,CLR,,0.00,0.0,WeatherDisplay:10.37,2013-05-07 01:50:00,
2013-05-06 20:55:00,50.4,41.0,30.05,NW,323,1.1,1.1,70,0.00,CLR,,0.00,0.0,WeatherDisplay:10.37,2013-05-07 01:55:00,
2013-05-06 21:00:00,49.7,41.7,30.05,NW,323,0.0,0.0,74,0.00,CLR,,0.00,0.0,WeatherDisplay:10.37,2013-05-07 02:00:00,
2013-05-06 21:05:00,49.1,40.8,30.05,NW,323,0.0,0.0,73,0.00,CLR,,0.00,0.0,WeatherDisplay:10.37,2013-05-07 02:05:00,
2013-05-06 21:10:00,48.7,41.1,30.05,NW,323,0.0,0.0,75,0.00,CLR,,0.00,0.0,WeatherDisplay:10.37,2013-05-07 02:10:00,
2013-05-06 21:15:00,48.3,41.1,30.05,NW,323,0.0,0.0,76,0.00,CLR,,0.00,0.0,WeatherDisplay:10.37,2013-05-07 02:15:00,
2013-05-06 21:20:00,48.1,40.9,30.06,NW,323,0.0,0.0,76,0.00,CLR,,0.00,0.0,WeatherDisplay:10.37,2013-05-07 02:20:00,
2013-05-06 21:25:00,47.8,41.3,30.06,NW,323,0.0,0.0,78,0.00,CLR,,0.00,0.0,WeatherDisplay:10.37,2013-05-07 02:25:00,
2013-05-06 21:30:00,47.5,41.0,30.06,NW,323,0.0,0.0,78,0.00,CLR,,0.00,0.0,WeatherDisplay:10.37,2013-05-07 02:30:00,
2013-05-06 21:35:00,47.0,40.8,30.06,NW,323,0.0,0.0,79,0.00,CLR,,0.00,0.0,WeatherDisplay:10.37,2013-05-07 02:35:00,
2013-05-06 21:40:00,46.7,40.5,30.06,NW,323,0.0,0.0,79,0.00,CLR,,0.00,0.0,WeatherDisplay:10.37,2013-05-07 02:40:00,
2013-05-06 21:45:00,46.4,40.9,30.06,NW,323,0.0,0.0,81,0.00,CLR,,0.00,0.0,WeatherDisplay:10.37,2013-05-07 02:45:00,
2013-05-06 21:50:00,46.1,40.3,30.06,NW,323,0.0,0.0,80,0.00,CLR,,0.00,0.0,WeatherDisplay:10.37,2013-05-07 02:50:00,
2013-05-06 21:55:00,45.8,40.0,30.06,NW,323,0.0,0.0,80,0.00,CLR,,0.00,0.0,WeatherDisplay:10.37,2013-05-07 02:55:00,
2013-05-06 22:00:00,45.4,40.2,30.06,NW,323,0.0,0.0,82,0.00,CLR,,0.00,0.0,WeatherDisplay:10.37,2013-05-07 03:00:00,
2013-05-06 22:05:00,45.2,40.3,30.06,NW,323,0.0,0.0,83,0.00,CLR,,0.00,0.0,WeatherDisplay:10.37,2013-05-07 03:05:00,
2013-05-06 22:10:00,45.0,39.8,30.07,NW,323,0.0,0.0,82,0.00,CLR,,0.00,0.0,WeatherDisplay:10.37,2013-05-07 03:10:00,
2013-05-06 22:15:00,44.7,39.5,30.07,NW,323,0.0,0.0,82,0.00,CLR,,0.00,0.0,WeatherDisplay:10.37,2013-05-07 03:15:00,
2013-05-06 22:20:00,44.5,39.3,30.07,NW,323,0.0,0.0,82,0.00,CLR,,0.00,0.0,WeatherDisplay:10.37,2013-05-07 03:20:00,
2013-05-06 22:25:00,44.4,39.6,30.07,NW,323,0.0,0.0,83,0.00,CLR,,0.00,0.0,WeatherDisplay:10.37,2013-05-07 03:25:00,
2013-05-06 22:30:00,44.1,39.6,30.07,NW,323,0.0,0.0,84,0.00,CLR,,0.00,0.0,WeatherDisplay:10.37,2013-05-07 03:30:00,
2013-05-06 22:35:00,43.8,39.3,30.07,NW,323,0.0,0.0,84,0.00,CLR,,0.00,0.0,WeatherDisplay:10.37,2013-05-07 03:35:00,
2013-05-06 22:40:00,43.6,39.4,30.07,NW,323,0.0,0.0,85,0.00,CLR,,0.00,0.0,WeatherDisplay:10.37,2013-05-07 03:40:00,
2013-05-06 22:45:00,43.4,39.5,30.07,NW,323,0.0,0.0,86,0.00,CLR,,0.00,0.0,WeatherDisplay:10.37,2013-05-07 03:45:00,
2013-05-06 22:50:00,43.3,39.4,30.07,NW,323,0.0,0.0,86,0.00,CLR,,0.00,0.0,WeatherDisplay:10.37,2013-05-07 03:50:00,
2013-05-06 22:55:00,43.1,39.2,30.07,NW,323,0.0,0.0,86,0.00,CLR,,0.00,0.0,WeatherDisplay:10.37,2013-05-07 03:55:00,
2013-05-06 23:00:00,42.9,39.0,30.07,NW,323,0.0,0.0,86,0.00,CLR,,0.00,0.0,WeatherDisplay:10.37,2013-05-07 04:00:00,
2013-05-06 23:01:00,42.9,39.0,30.07,NW,323,0.0,0.0,86,0.00,CLR,,0.00,0.0,WeatherDisplay:10.37,2013-05-07 04:01:00,
2013-05-06 23:06:00,42.7,39.1,30.07,NW,323,0.0,0.0,87,0.00,CLR,,0.00,0.0,WeatherDisplay:10.37,2013-05-07 04:06:00,
2013-05-06 23:11:00,42.4,38.5,30.07,NW,323,0.0,0.0,86,0.00,CLR,,0.00,0.0,WeatherDisplay:10.37,2013-05-07 04:11:00,
2013-05-06 23:16:00,42.3,38.7,30.07,NW,323,0.0,0.0,87,0.00,CLR,,0.00,0.0,WeatherDisplay:10.37,2013-05-07 04:16:00,
2013-05-06 23:21:00,42.2,38.6,30.07,NW,323,0.0,0.0,87,0.00,CLR,,0.00,0.0,WeatherDisplay:10.37,2013-05-07 04:21:00,
2013-05-06 23:26:00,41.9,38.6,30.07,NW,323,0.0,0.0,88,0.00,CLR,,0.00,0.0,WeatherDisplay:10.37,2013-05-07 04:26:00,
2013-05-06 23:32:00,41.8,38.8,30.07,NW,323,0.0,0.0,89,0.00,CLR,,0.00,0.0,WeatherDisplay:10.37,2013-05-07 04:32:00,
2013-05-06 23:37:00,41.7,38.7,30.07,NW,323,0.0,0.0,89,0.00,CLR,,0.00,0.0,WeatherDisplay:10.37,2013-05-07 04:37:00,
2013-05-06 23:42:00,41.6,38.6,30.07,NW,323,0.0,0.0,89,0.00,CLR,,0.00,0.0,WeatherDisplay:10.37,2013-05-07 04:42:00,
2013-05-06 23:47:00,41.4,38.4,30.07,NW,323,0.0,0.0,89,0.00,CLR,,0.00,0.0,WeatherDisplay:10.37,2013-05-07 04:47:00,
2013-05-06 23:52:00,41.3,38.3,30.07,NW,323,0.0,0.0,89,0.00,CLR,,0.00,0.0,WeatherDisplay:10.37,2013-05-07 04:52:00,
2013-05-06 23:57:00,41.0,38.0,30.07,NW,323,0.0,0.0,89,0.00,CLR,,0.00,0.0,WeatherDisplay:10.37,2013-05-07 04:57:00,